Time,TemperatureF,DewpointF,PressureIn,WindDirection,WindDirectionDegrees,WindSpeedMPH,WindSpeedGustMPH,Humidity,HourlyPrecipIn,Conditions,Clouds,dailyrainin,SoftwareType,DateUTC
2013-03-01 00:07:00,38.5,29.0,29.72,West,260,4.0,5.0,70,0.00,,,0.00,weatherlink.com 1.10,2013-03-01 05:07:00,
2013-03-01 00:23:00,-999.0,-99.9,29.72,North,-999,-999.0,-999.0,-999,0.00,,,0.00,weatherlink.com 1.10,2013-03-01 05:23:00,
2013-03-01 00:38:00,-999.0,-99.9,29.73,North,-999,-999.0,-999.0,-999,0.00,,,0.00,weatherlink.com 1.10,2013-03-01 05:38:00,
2013-03-01 00:53:00,-999.0,-99.9,29.73,North,-999,-999.0,-999.0,-999,0.00,,,0.00,weatherlink.com 1.10,2013-03-01 05:53:00,
2013-03-01 01:08:00,38.1,30.0,29.74,WNW,283,4.0,7.0,72,0.00,,,0.00,weatherlink.com 1.10,2013-03-01 06:08:00,
2013-03-01 01:23:00,38.0,30.0,29.74,SW,226,9.0,11.0,72,0.00,,,0.00,weatherlink.com 1.10,2013-03-01 06:23:00,
2013-03-01 01:38:00,38.0,30.0,29.75,West,259,5.0,15.0,72,0.00,,,0.00,weatherlink.com 1.10,2013-03-01 06:38:00,
2013-03-01 01:53:00,37.9,30.0,29.75,WNW,302,4.0,9.0,73,0.00,,,0.00,weatherlink.com 1.10,2013-03-01 06:53:00,
2013-03-01 02:08:00,37.7,30.0,29.75,West,276,4.0,9.0,73,0.00,,,0.00,weatherlink.com 1.10,2013-03-01 07:08:00,
2013-03-01 02:23:00,37.4,30.0,29.75,NW,318,3.0,10.0,75,0.00,,,0.00,weatherlink.com 1.10,2013-03-01 07:23:00,
2013-03-01 02:38:00,37.2,30.0,29.75,SW,224,3.0,6.0,76,0.00,,,0.00,weatherlink.com 1.10,2013-03-01 07:38:00,
2013-03-01 02:53:00,37.2,30.0,29.75,WNW,293,3.0,6.0,76,0.00,,,0.00,weatherlink.com 1.10,2013-03-01 07:53:00,
2013-03-01 03:08:00,37.2,30.0,29.75,West,270,0.0,6.0,75,0.00,,,0.00,weatherlink.com 1.10,2013-03-01 08:08:00,
2013-03-01 03:23:00,37.3,30.0,29.75,WNW,289,0.0,3.0,75,0.00,,,0.00,weatherlink.com 1.10,2013-03-01 08:23:00,
2013-03-01 03:38:00,37.3,30.0,29.75,WNW,295,2.0,7.0,74,0.00,,,0.00,weatherlink.com 1.10,2013-03-01 08:38:00,
2013-03-01 03:53:00,37.4,29.0,29.75,West,278,3.0,7.0,73,0.00,,,0.00,weatherlink.com 1.10,2013-03-01 08:53:00,
2013-03-01 04:08:00,37.5,29.0,29.75,West,281,5.0,8.0,72,0.00,,,0.00,weatherlink.com 1.10,2013-03-01 09:08:00,
2013-03-01 04:23:00,37.5,29.0,29.75,West,273,4.0,8.0,72,0.00,,,0.00,weatherlink.com 1.10,2013-03-01 09:23:00,
2013-03-01 04:38:00,37.3,29.0,29.75,West,274,4.0,8.0,72,0.00,,,0.00,weatherlink.com 1.10,2013-03-01 09:38:00,
2013-03-01 04:53:00,37.3,29.0,29.75,West,274,5.0,10.0,72,0.00,,,0.00,weatherlink.com 1.10,2013-03-01 09:53:00,
2013-03-01 05:08:00,37.3,29.0,29.75,WNW,285,6.0,15.0,72,0.00,,,0.00,weatherlink.com 1.10,2013-03-01 10:08:00,
2013-03-01 05:23:00,37.3,29.0,29.75,WNW,297,5.0,13.0,72,0.00,,,0.00,weatherlink.com 1.10,2013-03-01 10:23:00,
2013-03-01 05:38:00,37.1,29.0,29.76,WNW,297,5.0,11.0,72,0.00,,,0.00,weatherlink.com 1.10,2013-03-01 10:38:00,
2013-03-01 05:53:00,37.0,29.0,29.76,WSW,242,7.0,9.0,73,0.00,,,0.00,weatherlink.com 1.10,2013-03-01 10:53:00,
2013-03-01 06:08:00,37.0,29.0,29.76,West,276,4.0,9.0,72,0.00,,,0.00,weatherlink.com 1.10,2013-03-01 11:08:00,
2013-03-01 06:23:00,36.9,29.0,29.77,NW,304,4.0,12.0,72,0.00,,,0.00,weatherlink.com 1.10,2013-03-01 11:23:00,
2013-03-01 06:38:00,36.8,29.0,29.77,WNW,293,3.0,9.0,72,0.00,,,0.00,weatherlink.com 1.10,2013-03-01 11:38:00,
2013-03-01 06:53:00,36.8,29.0,29.77,West,277,8.0,10.0,72,0.00,,,0.00,weatherlink.com 1.10,2013-03-01 11:53:00,
2013-03-01 07:08:00,36.8,28.0,29.78,NW,307,6.0,9.0,71,0.00,,,0.00,weatherlink.com 1.10,2013-03-01 12:08:00,
2013-03-01 07:24:00,36.9,28.0,29.78,WNW,285,4.0,10.0,70,0.00,,,0.00,weatherlink.com 1.10,2013-03-01 12:24:00,
2013-03-01 07:39:00,37.0,28.0,29.79,West,271,2.0,8.0,70,0.00,,,0.00,weatherlink.com 1.10,2013-03-01 12:39:00,
2013-03-01 07:54:00,37.1,28.0,29.80,WNW,288,2.0,7.0,69,0.00,,,0.00,weatherlink.com 1.10,2013-03-01 12:54:00,
2013-03-01 08:09:00,37.2,28.0,29.80,WNW,288,3.0,12.0,69,0.00,,,0.00,weatherlink.com 1.10,2013-03-01 13:09:00,
2013-03-01 08:24:00,37.3,28.0,29.81,West,266,4.0,10.0,68,0.00,,,0.00,weatherlink.com 1.10,2013-03-01 13:24:00,
2013-03-01 08:39:00,37.2,28.0,29.82,SW,229,9.0,13.0,69,0.00,,,0.00,weatherlink.com 1.10,2013-03-01 13:39:00,
2013-03-01 08:54:00,37.5,28.0,29.82,West,274,2.0,15.0,68,0.00,,,0.00,weatherlink.com 1.10,2013-03-01 13:54:00,
2013-03-01 09:09:00,37.7,28.0,29.82,West,266,5.0,16.0,67,0.00,,,0.00,weatherlink.com 1.10,2013-03-01 14:09:00,
2013-03-01 09:24:00,37.9,27.0,29.82,West,276,4.0,16.0,66,0.00,,,0.00,weatherlink.com 1.10,2013-03-01 14:24:00,
2013-03-01 09:39:00,38.0,27.0,29.82,SSW,200,5.0,14.0,66,0.00,,,0.00,weatherlink.com 1.10,2013-03-01 14:39:00,
2013-03-01 09:54:00,37.7,28.0,29.82,West,264,10.0,18.0,67,0.00,,,0.00,weatherlink.com 1.10,2013-03-01 14:54:00,
2013-03-01 10:09:00,38.1,28.0,29.82,West,273,12.0,12.0,66,0.00,,,0.00,weatherlink.com 1.10,2013-03-01 15:09:00,
2013-03-01 10:24:00,38.4,27.0,29.82,West,266,3.0,16.0,65,0.00,,,0.00,weatherlink.com 1.10,2013-03-01 15:24:00,
2013-03-01 10:39:00,38.4,27.0,29.82,WNW,282,7.0,14.0,65,0.00,,,0.00,weatherlink.com 1.10,2013-03-01 15:39:00,
2013-03-01 10:54:00,38.1,26.0,29.82,WSW,253,10.0,17.0,63,0.00,,,0.00,weatherlink.com 1.10,2013-03-01 15:54:00,
2013-03-01 11:09:00,38.2,25.0,29.82,West,271,8.0,17.0,59,0.00,,,0.00,weatherlink.com 1.10,2013-03-01 16:09:00,
2013-03-01 11:24:00,39.1,26.0,29.81,WSW,255,6.0,20.0,59,0.00,,,0.00,weatherlink.com 1.10,2013-03-01 16:24:00,
2013-03-01 11:39:00,39.9,26.0,29.82,West,262,4.0,18.0,58,0.00,,,0.00,weatherlink.com 1.10,2013-03-01 16:39:00,
2013-03-01 11:54:00,40.1,25.0,29.82,West,276,9.0,18.0,55,0.00,,,0.00,weatherlink.com 1.10,2013-03-01 16:54:00,
2013-03-01 12:09:00,40.4,25.0,29.82,WNW,287,12.0,20.0,54,0.00,,,0.00,weatherlink.com 1.10,2013-03-01 17:09:00,
2013-03-01 12:24:00,40.3,24.0,29.81,West,263,13.0,19.0,52,0.00,,,0.00,weatherlink.com 1.10,2013-03-01 17:24:00,
2013-03-01 12:39:00,40.8,23.0,29.81,West,270,13.0,20.0,50,0.00,,,0.00,weatherlink.com 1.10,2013-03-01 17:39:00,
2013-03-01 12:54:00,41.3,23.0,29.81,NW,319,8.0,18.0,48,0.00,,,0.00,weatherlink.com 1.10,2013-03-01 17:54:00,
2013-03-01 13:09:00,41.2,23.0,29.81,West,270,4.0,16.0,48,0.00,,,0.00,weatherlink.com 1.10,2013-03-01 18:09:00,
2013-03-01 13:24:00,41.2,24.0,29.80,WNW,295,5.0,13.0,50,0.00,,,0.00,weatherlink.com 1.10,2013-03-01 18:24:00,
2013-03-01 13:39:00,41.0,23.0,29.80,WNW,288,5.0,15.0,49,0.00,,,0.00,weatherlink.com 1.10,2013-03-01 18:39:00,
2013-03-01 13:54:00,40.6,23.0,29.79,North,4,6.0,12.0,49,0.00,,,0.00,weatherlink.com 1.10,2013-03-01 18:54:00,
2013-03-01 14:09:00,40.6,23.0,29.80,West,267,12.0,15.0,49,0.00,,,0.00,weatherlink.com 1.10,2013-03-01 19:09:00,
2013-03-01 14:24:00,40.4,23.0,29.80,West,264,6.0,13.0,50,0.00,,,0.00,weatherlink.com 1.10,2013-03-01 19:24:00,
2013-03-01 14:39:00,39.9,24.0,29.80,West,271,3.0,16.0,54,0.00,,,0.00,weatherlink.com 1.10,2013-03-01 19:39:00,
2013-03-01 14:54:00,39.6,24.0,29.80,West,267,4.0,17.0,54,0.00,,,0.00,weatherlink.com 1.10,2013-03-01 19:54:00,
2013-03-01 15:09:00,39.3,24.0,29.80,WNW,297,5.0,18.0,54,0.00,,,0.00,weatherlink.com 1.10,2013-03-01 20:09:00,
2013-03-01 15:24:00,39.3,24.0,29.80,West,267,4.0,13.0,55,0.00,,,0.00,weatherlink.com 1.10,2013-03-01 20:24:00,
2013-03-01 15:39:00,39.2,24.0,29.80,WNW,297,5.0,15.0,54,0.00,,,0.00,weatherlink.com 1.10,2013-03-01 20:39:00,
2013-03-01 15:54:00,39.2,24.0,29.80,NW,314,6.0,14.0,55,0.00,,,0.00,weatherlink.com 1.10,2013-03-01 20:54:00,
2013-03-01 16:09:00,39.1,24.0,29.81,WNW,285,10.0,14.0,55,0.00,,,0.00,weatherlink.com 1.10,2013-03-01 21:09:00,
2013-03-01 16:24:00,38.7,24.0,29.82,NNW,344,5.0,18.0,57,0.00,,,0.00,weatherlink.com 1.10,2013-03-01 21:24:00,
2013-03-01 16:39:00,38.1,25.0,29.82,West,273,4.0,15.0,59,0.00,,,0.00,weatherlink.com 1.10,2013-03-01 21:39:00,
2013-03-01 16:54:00,37.8,25.0,29.82,WNW,283,6.0,18.0,61,0.00,,,0.00,weatherlink.com 1.10,2013-03-01 21:54:00,
2013-03-01 17:09:00,37.5,25.0,29.83,WNW,295,5.0,17.0,61,0.00,,,0.00,weatherlink.com 1.10,2013-03-01 22:09:00,
2013-03-01 17:24:00,37.3,25.0,29.83,ENE,69,2.0,14.0,61,0.00,,,0.00,weatherlink.com 1.10,2013-03-01 22:24:00,
2013-03-01 17:39:00,37.1,25.0,29.84,NW,316,6.0,15.0,62,0.00,,,0.00,weatherlink.com 1.10,2013-03-01 22:39:00,
2013-03-01 17:54:00,37.0,25.0,29.84,NW,314,7.0,15.0,63,0.00,,,0.00,weatherlink.com 1.10,2013-03-01 22:54:00,
2013-03-01 18:24:00,36.0,26.0,29.85,WSW,248,7.0,10.0,67,0.00,,,0.00,weatherlink.com 1.10,2013-03-01 23:24:00,
2013-03-01 18:39:00,35.9,26.0,29.86,WNW,295,6.0,7.0,67,0.00,,,0.00,weatherlink.com 1.10,2013-03-01 23:39:00,
2013-03-01 18:55:00,35.7,26.0,29.86,WNW,283,4.0,10.0,67,0.00,,,0.00,weatherlink.com 1.10,2013-03-01 23:55:00,
2013-03-01 19:10:00,35.6,26.0,29.86,WSW,248,5.0,12.0,67,0.00,,,0.00,weatherlink.com 1.10,2013-03-02 00:10:00,
2013-03-01 19:25:00,35.3,25.0,29.86,WNW,291,6.0,10.0,66,0.00,,,0.00,weatherlink.com 1.10,2013-03-02 00:25:00,
2013-03-01 19:40:00,35.2,24.0,29.86,WNW,289,4.0,13.0,65,0.00,,,0.00,weatherlink.com 1.10,2013-03-02 00:40:00,
2013-03-01 19:55:00,35.0,24.0,29.86,WNW,286,5.0,12.0,65,0.00,,,0.00,weatherlink.com 1.10,2013-03-02 00:55:00,
2013-03-01 20:10:00,34.9,24.0,29.87,NW,307,5.0,10.0,64,0.00,,,0.00,weatherlink.com 1.10,2013-03-02 01:10:00,
2013-03-01 20:25:00,34.8,24.0,29.87,WNW,298,8.0,12.0,64,0.00,,,0.00,weatherlink.com 1.10,2013-03-02 01:25:00,
2013-03-01 20:40:00,34.7,24.0,29.88,West,273,5.0,15.0,64,0.00,,,0.00,weatherlink.com 1.10,2013-03-02 01:40:00,
2013-03-01 20:55:00,34.6,22.0,29.88,WNW,293,9.0,16.0,61,0.00,,,0.00,weatherlink.com 1.10,2013-03-02 01:55:00,
2013-03-01 21:10:00,34.2,22.0,29.89,West,276,10.0,15.0,61,0.00,,,0.00,weatherlink.com 1.10,2013-03-02 02:10:00,
2013-03-01 21:25:00,33.8,21.0,29.89,West,281,7.0,12.0,61,0.00,,,0.00,weatherlink.com 1.10,2013-03-02 02:25:00,
2013-03-01 21:40:00,33.6,21.0,29.89,WNW,284,7.0,15.0,61,0.00,,,0.00,weatherlink.com 1.10,2013-03-02 02:40:00,
2013-03-01 21:55:00,33.8,21.0,29.89,NW,316,4.0,11.0,61,0.00,,,0.00,weatherlink.com 1.10,2013-03-02 02:55:00,
2013-03-01 22:10:00,33.8,21.0,29.89,WNW,297,5.0,13.0,61,0.00,,,0.00,weatherlink.com 1.10,2013-03-02 03:10:00,
2013-03-01 22:25:00,33.7,21.0,29.89,WSW,250,3.0,13.0,61,0.00,,,0.00,weatherlink.com 1.10,2013-03-02 03:25:00,
2013-03-01 22:40:00,33.7,21.0,29.89,West,276,4.0,11.0,61,0.00,,,0.00,weatherlink.com 1.10,2013-03-02 03:40:00,
2013-03-01 22:55:00,33.7,22.0,29.89,WNW,285,4.0,10.0,62,0.00,,,0.00,weatherlink.com 1.10,2013-03-02 03:55:00,
2013-03-01 23:10:00,33.7,22.0,29.89,NNW,340,6.0,12.0,62,0.00,,,0.00,weatherlink.com 1.10,2013-03-02 04:10:00,
2013-03-01 23:25:00,33.6,22.0,29.88,West,269,5.0,10.0,62,0.00,,,0.00,weatherlink.com 1.10,2013-03-02 04:25:00,
2013-03-01 23:40:00,33.4,22.0,29.88,WNW,284,3.0,9.0,63,0.00,,,0.00,weatherlink.com 1.10,2013-03-02 04:40:00,
2013-03-01 23:55:00,33.3,22.0,29.88,WNW,291,3.0,13.0,64,0.00,,,0.00,weatherlink.com 1.10,2013-03-02 04:55:00,